createdAt,value
2017-09-16T00:01:34.163Z,99.90
2017-09-16T00:04:03.208Z,99.90
2017-09-16T00:06:32.296Z,99.90
2017-09-16T00:09:00.581Z,99.90
2017-09-16T00:11:28.860Z,99.90
2017-09-16T00:13:57.952Z,99.90
2017-09-16T00:16:26.249Z,99.90
2017-09-16T00:18:54.536Z,99.90
2017-09-16T00:21:23.585Z,99.90
2017-09-16T00:23:51.878Z,99.90
2017-09-16T00:26:20.185Z,99.90
2017-09-16T00:28:48.539Z,99.90
2017-09-16T00:31:16.869Z,99.90
2017-09-16T00:33:45.229Z,99.90
2017-09-16T00:36:13.512Z,99.90
2017-09-16T00:38:42.588Z,99.90
2017-09-16T00:41:10.926Z,99.90
2017-09-16T00:43:40.345Z,99.90
2017-09-16T00:46:08.685Z,99.90
2017-09-16T00:48:37.756Z,99.90
2017-09-16T00:51:06.080Z,99.90
2017-09-16T00:53:34.436Z,99.90
2017-09-16T00:56:02.741Z,99.90
2017-09-16T00:58:31.022Z,99.90
2017-09-16T01:00:59.350Z,99.90
2017-09-16T01:03:27.628Z,99.90
2017-09-16T01:05:55.947Z,99.90
2017-09-16T01:08:24.257Z,99.90
2017-09-16T01:10:53.289Z,99.90
2017-09-16T01:13:21.601Z,99.90
2017-09-16T01:15:49.890Z,99.90
2017-09-16T01:18:18.222Z,99.90
2017-09-16T01:20:47.321Z,99.90
2017-09-16T01:23:15.605Z,99.90
2017-09-16T01:25:43.890Z,99.90
2017-09-16T01:28:12.203Z,99.90
2017-09-16T01:30:40.537Z,99.90
2017-09-16T01:33:08.847Z,99.90
2017-09-16T01:35:37.196Z,99.90
2017-09-16T01:38:05.473Z,99.90
2017-09-16T01:40:33.858Z,99.90
2017-09-16T01:43:03.100Z,99.90
2017-09-16T01:45:31.387Z,99.90
2017-09-16T01:48:00.589Z,99.90
2017-09-16T01:50:28.906Z,99.90
2017-09-16T01:52:57.953Z,99.90
2017-09-16T01:55:26.306Z,99.90
2017-09-16T01:57:54.593Z,99.90
2017-09-16T02:00:22.957Z,99.90
2017-09-16T02:02:51.441Z,99.90
2017-09-16T02:05:20.492Z,99.90
2017-09-16T02:07:48.837Z,99.90
2017-09-16T02:10:17.190Z,99.90
2017-09-16T02:12:45.539Z,99.90
2017-09-16T02:15:13.892Z,99.90
2017-09-16T02:17:42.191Z,99.90
2017-09-16T02:20:17.048Z,99.90
2017-09-16T02:22:45.394Z,99.90
2017-09-16T02:25:13.825Z,99.90
2017-09-16T02:27:42.138Z,99.90
2017-09-16T02:30:10.488Z,99.90
2017-09-16T02:35:58.701Z,99.90
2017-09-16T02:38:26.999Z,99.90
2017-09-16T02:40:55.350Z,99.90
2017-09-16T02:43:23.738Z,99.90
2017-09-16T02:45:52.838Z,99.90
2017-09-16T02:48:21.148Z,99.90
2017-09-16T02:50:49.481Z,99.90
2017-09-16T02:53:17.783Z,99.90
2017-09-16T02:55:46.886Z,99.90
2017-09-16T02:58:15.238Z,99.90
2017-09-16T03:00:43.545Z,99.90
2017-09-16T03:03:11.916Z,99.90
2017-09-16T03:05:40.214Z,99.90
2017-09-16T03:08:08.500Z,99.90
2017-09-16T03:10:36.815Z,99.90
2017-09-16T03:13:05.109Z,99.90
2017-09-16T03:15:33.432Z,99.90
2017-09-16T03:18:01.720Z,99.90
2017-09-16T03:20:31.528Z,99.90
2017-09-16T03:23:01.377Z,99.90
2017-09-16T03:25:29.693Z,99.90
2017-09-16T03:27:58.033Z,99.90
2017-09-16T03:30:27.114Z,99.90
2017-09-16T03:32:55.438Z,99.90
2017-09-16T03:35:24.494Z,99.90
2017-09-16T03:37:53.565Z,99.90
2017-09-16T03:40:22.643Z,99.90
2017-09-16T03:42:51.723Z,99.90
2017-09-16T03:45:20.049Z,99.90
2017-09-16T03:47:48.364Z,99.90
2017-09-16T03:50:16.666Z,99.90
2017-09-16T03:52:45.749Z,99.90
2017-09-16T03:55:14.037Z,99.90
2017-09-16T03:57:42.363Z,99.90
2017-09-16T04:00:11.326Z,99.90
2017-09-16T04:02:48.351Z,99.90
2017-09-16T04:05:16.879Z,99.90
2017-09-16T04:07:45.210Z,99.90
2017-09-16T04:10:13.633Z,99.90
2017-09-16T04:12:41.960Z,99.90
2017-09-16T04:15:11.044Z,99.90
2017-09-16T04:17:40.088Z,99.90
2017-09-16T04:20:08.441Z,99.90
2017-09-16T04:22:36.751Z,99.90
2017-09-16T04:25:05.053Z,99.90
2017-09-16T04:27:33.370Z,99.90
2017-09-16T04:30:01.786Z,99.90
2017-09-16T04:32:30.180Z,99.90
2017-09-16T04:34:58.473Z,99.90
2017-09-16T04:37:26.796Z,99.90
2017-09-16T04:39:55.864Z,99.90
2017-09-16T04:42:24.181Z,99.90
2017-09-16T04:44:52.484Z,99.90
2017-09-16T04:47:20.810Z,99.90
2017-09-16T04:49:50.114Z,99.90
2017-09-16T04:52:18.571Z,99.90
2017-09-16T04:54:46.861Z,99.90
2017-09-16T04:57:15.203Z,99.90
2017-09-16T04:59:44.313Z,99.90
2017-09-16T05:02:12.600Z,99.90
2017-09-16T05:04:40.907Z,99.90
2017-09-16T05:07:09.281Z,99.90
2017-09-16T05:09:37.593Z,99.90
2017-09-16T05:12:05.892Z,99.90
2017-09-16T05:14:34.293Z,99.90
2017-09-16T05:17:02.649Z,99.90
2017-09-16T05:19:30.940Z,99.90
2017-09-16T05:21:59.269Z,99.90
2017-09-16T05:24:27.562Z,99.90
2017-09-16T05:27:02.205Z,99.90
2017-09-16T05:29:30.502Z,99.90
2017-09-16T05:31:58.875Z,99.90
2017-09-16T05:34:27.220Z,99.90
2017-09-16T05:36:55.557Z,99.90
2017-09-16T05:39:23.859Z,99.90
2017-09-16T05:41:52.182Z,99.90
2017-09-16T05:44:21.440Z,99.90
2017-09-16T05:46:49.728Z,99.90
2017-09-16T05:49:18.039Z,99.90
2017-09-16T05:51:46.371Z,99.90
2017-09-16T05:54:15.421Z,99.90
2017-09-16T05:56:44.760Z,99.90
2017-09-16T05:59:15.283Z,99.90
2017-09-16T06:01:44.621Z,99.90
2017-09-16T06:04:13.954Z,99.90
2017-09-16T06:06:42.243Z,99.90
2017-09-16T06:09:10.597Z,99.90
2017-09-16T06:11:38.883Z,99.90
2017-09-16T06:14:08.242Z,99.90
2017-09-16T06:16:36.539Z,99.90
2017-09-16T06:19:05.607Z,99.90
2017-09-16T06:21:34.651Z,99.90
2017-09-16T06:24:02.930Z,99.90
2017-09-16T06:26:31.221Z,99.90
2017-09-16T06:29:01.204Z,99.90
2017-09-16T06:31:48.644Z,99.90
2017-09-16T06:34:20.107Z,99.90
2017-09-16T06:36:48.406Z,99.90
2017-09-16T06:39:17.567Z,99.90
2017-09-16T06:41:45.891Z,99.90
2017-09-16T06:44:14.266Z,99.90
2017-09-16T06:46:42.975Z,99.90
2017-09-16T06:49:12.049Z,99.90
2017-09-16T06:51:40.345Z,99.90
2017-09-16T06:54:08.622Z,99.90
2017-09-16T06:56:38.523Z,99.90
2017-09-16T06:59:07.595Z,99.90
2017-09-16T07:01:37.588Z,99.90
2017-09-16T07:04:05.950Z,99.90
2017-09-16T07:06:34.286Z,99.90
2017-09-16T07:09:02.567Z,99.90
2017-09-16T07:11:31.659Z,99.90
2017-09-16T07:13:59.996Z,99.90
2017-09-16T07:16:28.295Z,99.90
2017-09-16T07:18:56.597Z,99.90
2017-09-16T07:21:30.104Z,99.90
2017-09-16T07:23:58.419Z,99.90
2017-09-16T07:26:27.492Z,99.90
2017-09-16T07:28:55.878Z,99.90
2017-09-16T07:31:24.938Z,99.90
2017-09-16T07:33:54.061Z,99.90
2017-09-16T07:36:23.465Z,99.90
2017-09-16T07:38:51.782Z,99.90
2017-09-16T07:41:22.075Z,99.90
2017-09-16T07:43:50.362Z,99.90
2017-09-16T07:46:18.652Z,99.90
2017-09-16T07:48:47.038Z,99.90
2017-09-16T07:51:15.431Z,99.90
2017-09-16T07:54:00.501Z,99.90
2017-09-16T07:56:28.823Z,99.90
2017-09-16T07:58:57.107Z,99.90
2017-09-16T08:01:25.449Z,99.90
2017-09-16T08:03:53.770Z,99.90
2017-09-16T08:06:22.092Z,99.90
2017-09-16T08:08:50.368Z,99.90
2017-09-16T08:11:20.374Z,99.90
2017-09-16T08:13:48.723Z,99.90
2017-09-16T08:16:18.064Z,99.90
2017-09-16T08:18:46.404Z,99.90
2017-09-16T08:21:19.443Z,99.90
2017-09-16T08:23:55.861Z,99.90
2017-09-16T08:26:24.986Z,95.30
2017-09-16T08:28:53.340Z,95.90
2017-09-16T08:31:21.641Z,94.80
2017-09-16T08:33:50.019Z,93.30
2017-09-16T08:36:18.364Z,96.10
2017-09-16T08:38:51.683Z,95.60
2017-09-16T08:41:27.906Z,93.90
2017-09-16T08:43:56.270Z,93.20
2017-09-16T08:46:24.599Z,93.30
2017-09-16T08:48:53.066Z,95.20
2017-09-16T08:51:21.455Z,93.70
2017-09-16T08:53:49.784Z,95.50
2017-09-16T08:56:18.077Z,91.90
2017-09-16T08:58:46.394Z,92.10
2017-09-16T09:01:14.698Z,89.30
2017-09-16T09:03:45.053Z,91.60
2017-09-16T09:06:14.715Z,85.30
2017-09-16T09:08:45.893Z,84.70
2017-09-16T09:11:15.753Z,83.10
2017-09-16T09:13:48.634Z,83.40
2017-09-16T09:16:17.011Z,83.40
2017-09-16T09:18:45.833Z,80.80
2017-09-16T09:21:14.318Z,78.60
2017-09-16T09:23:53.196Z,74.80
2017-09-16T09:26:21.505Z,74.70
2017-09-16T09:28:51.803Z,72.60
2017-09-16T09:31:20.117Z,65.50
2017-09-16T09:33:48.448Z,65.00
2017-09-16T09:36:17.530Z,63.20
2017-09-16T09:38:45.855Z,64.00
2017-09-16T09:41:16.749Z,59.70
2017-09-16T09:43:45.068Z,58.30
2017-09-16T09:46:15.235Z,60.30
2017-09-16T09:48:46.620Z,60.20
2017-09-16T09:54:15.933Z,57.10
2017-09-16T09:56:44.243Z,57.10
2017-09-16T09:59:13.334Z,59.40
2017-09-16T10:01:42.411Z,56.90
2017-09-16T10:04:11.517Z,58.70
2017-09-16T10:06:40.330Z,58.80
2017-09-16T10:09:08.667Z,56.80
2017-09-16T10:11:37.041Z,55.70
2017-09-16T10:14:05.361Z,56.10
2017-09-16T10:16:33.673Z,56.90
2017-09-16T10:19:02.026Z,58.10
2017-09-16T10:21:30.318Z,54.50
2017-09-16T10:23:58.615Z,54.20
2017-09-16T10:26:26.959Z,55.60
2017-09-16T10:28:55.306Z,55.50
2017-09-16T10:31:23.602Z,52.20
2017-09-16T10:33:52.689Z,50.50
2017-09-16T10:36:21.053Z,50.80
2017-09-16T10:38:49.429Z,50.30
2017-09-16T10:41:18.567Z,53.40
2017-09-16T10:43:47.636Z,51.20
2017-09-16T10:46:17.440Z,51.80
2017-09-16T10:48:45.758Z,50.10
2017-09-16T10:51:16.086Z,48.20
2017-09-16T10:53:44.387Z,48.10
2017-09-16T10:56:12.681Z,49.70
2017-09-16T10:58:42.078Z,49.20
2017-09-16T11:01:10.425Z,49.20
2017-09-16T11:03:39.538Z,46.10
2017-09-16T11:06:07.825Z,46.10
2017-09-16T11:08:36.130Z,45.90
2017-09-16T11:11:04.453Z,47.40
2017-09-16T11:13:32.746Z,48.00
2017-09-16T11:16:01.294Z,49.10
2017-09-16T11:18:29.718Z,45.40
2017-09-16T11:20:58.010Z,46.70
2017-09-16T11:23:26.334Z,45.90
2017-09-16T11:25:54.626Z,43.80
2017-09-16T11:28:22.942Z,44.60
2017-09-16T11:30:52.017Z,45.80
2017-09-16T11:33:21.128Z,45.30
2017-09-16T11:35:49.552Z,45.20
2017-09-16T11:38:17.887Z,44.10
2017-09-16T11:40:46.233Z,46.00
2017-09-16T11:43:14.524Z,44.20
2017-09-16T11:45:42.809Z,45.80
2017-09-16T11:48:11.123Z,45.30
2017-09-16T11:50:39.412Z,46.20
2017-09-16T11:53:07.786Z,45.80
2017-09-16T11:55:36.946Z,46.20
2017-09-16T11:58:05.276Z,46.00
2017-09-16T12:00:33.589Z,47.40
2017-09-16T12:03:01.897Z,46.60
2017-09-16T12:05:30.222Z,46.20
2017-09-16T12:07:58.574Z,46.90
2017-09-16T12:10:26.879Z,46.80
2017-09-16T12:12:55.965Z,44.50
2017-09-16T12:15:24.273Z,44.50
2017-09-16T12:17:52.715Z,47.40
2017-09-16T12:20:21.833Z,41.40
2017-09-16T12:22:50.503Z,43.10
2017-09-16T12:25:18.841Z,44.20
2017-09-16T12:27:47.975Z,41.20
2017-09-16T12:30:16.308Z,41.20
2017-09-16T12:32:44.613Z,39.90
2017-09-16T12:35:13.718Z,41.30
2017-09-16T12:37:42.023Z,41.10
2017-09-16T12:40:10.346Z,43.00
2017-09-16T12:42:38.665Z,40.20
2017-09-16T12:45:07.718Z,39.00
2017-09-16T12:47:36.101Z,39.00
2017-09-16T12:50:04.440Z,38.90
2017-09-16T12:52:33.574Z,41.50
2017-09-16T12:55:01.925Z,41.40
2017-09-16T12:57:30.228Z,44.40
2017-09-16T12:59:58.517Z,45.20
2017-09-16T13:02:27.625Z,43.20
2017-09-16T13:04:55.929Z,43.20
2017-09-16T13:07:27.147Z,40.40
2017-09-16T13:09:56.866Z,42.10
2017-09-16T13:12:25.307Z,42.10
2017-09-16T13:14:53.604Z,40.20
2017-09-16T13:17:21.898Z,41.00
2017-09-16T13:19:50.249Z,40.00
2017-09-16T13:22:18.656Z,42.50
2017-09-16T13:24:47.745Z,41.10
2017-09-16T13:27:16.114Z,41.10
2017-09-16T13:29:44.455Z,41.60
2017-09-16T13:32:12.772Z,42.30
2017-09-16T13:34:41.095Z,42.80
2017-09-16T13:37:10.216Z,41.80
2017-09-16T13:39:39.309Z,42.10
2017-09-16T13:42:07.613Z,42.00
2017-09-16T13:44:35.922Z,42.70
2017-09-16T13:47:05.106Z,44.90
2017-09-16T13:49:33.433Z,44.80
2017-09-16T13:52:01.937Z,50.00
2017-09-16T13:54:30.233Z,52.30
2017-09-16T13:56:58.851Z,52.20
2017-09-16T13:59:27.145Z,52.60
2017-09-16T14:01:55.468Z,54.50
2017-09-16T14:04:24.066Z,55.20
2017-09-16T14:06:52.827Z,55.70
2017-09-16T14:09:22.104Z,56.80
2017-09-16T14:11:50.621Z,57.60
2017-09-16T14:14:19.913Z,60.70
2017-09-16T14:16:48.380Z,60.70
2017-09-16T14:19:18.031Z,62.40
2017-09-16T14:21:46.595Z,63.90
2017-09-16T14:24:17.911Z,65.60
2017-09-16T14:26:47.629Z,70.10
2017-09-16T14:31:52.803Z,80.50
2017-09-16T14:34:21.196Z,80.70
2017-09-16T14:36:50.177Z,82.10
2017-09-16T14:39:18.984Z,81.90
2017-09-16T14:41:49.133Z,86.70
2017-09-16T14:44:18.296Z,87.90
2017-09-16T14:46:46.614Z,87.70
2017-09-16T14:49:14.986Z,85.80
2017-09-16T14:51:43.393Z,88.10
2017-09-16T14:54:11.769Z,89.10
2017-09-16T14:56:40.078Z,89.20
2017-09-16T14:59:08.368Z,90.90
2017-09-16T15:01:36.684Z,85.90
2017-09-16T15:04:05.000Z,86.90
2017-09-16T15:06:33.295Z,87.40
2017-09-16T15:09:01.582Z,88.00
2017-09-16T15:11:29.894Z,88.40
2017-09-16T15:13:58.220Z,89.10
2017-09-16T15:16:26.531Z,89.60
2017-09-16T15:18:55.639Z,91.50
2017-09-16T15:21:23.963Z,91.40
2017-09-16T15:23:52.263Z,93.10
2017-09-16T15:26:20.578Z,87.10
2017-09-16T15:28:48.910Z,87.90
2017-09-16T15:31:17.196Z,84.30
2017-09-16T15:33:46.285Z,78.40
2017-09-16T15:36:14.584Z,78.30
2017-09-16T15:38:42.975Z,78.90
2017-09-16T15:41:11.288Z,79.30
2017-09-16T15:43:39.577Z,76.90
2017-09-16T15:46:07.898Z,76.90
2017-09-16T15:48:36.233Z,78.70
2017-09-16T15:51:05.381Z,75.10
2017-09-16T15:53:33.725Z,74.70
2017-09-16T15:56:02.055Z,76.80
2017-09-16T15:58:31.113Z,75.00
2017-09-16T16:00:59.544Z,75.10
2017-09-16T16:03:28.666Z,79.80
2017-09-16T16:05:57.025Z,80.40
2017-09-16T16:08:25.329Z,82.00
2017-09-16T16:10:53.639Z,84.90
2017-09-16T16:13:22.004Z,82.40
2017-09-16T16:15:50.297Z,81.70
2017-09-16T16:18:18.595Z,81.30
2017-09-16T16:20:46.915Z,83.20
2017-09-16T16:23:16.003Z,83.30
2017-09-16T16:25:44.328Z,83.30
2017-09-16T16:28:12.618Z,83.80
2017-09-16T16:30:40.944Z,83.60
2017-09-16T16:33:09.638Z,82.30
2017-09-16T16:35:37.931Z,83.70
2017-09-16T16:38:06.253Z,83.20
2017-09-16T16:40:35.325Z,86.00
2017-09-16T16:43:03.655Z,86.70
2017-09-16T16:45:31.940Z,82.50
2017-09-16T16:48:00.286Z,78.40
2017-09-16T16:50:29.333Z,74.50
2017-09-16T16:52:57.652Z,74.60
2017-09-16T16:55:25.941Z,76.40
2017-09-16T16:57:54.230Z,75.40
2017-09-16T17:00:22.581Z,74.20
2017-09-16T17:02:50.907Z,75.00
2017-09-16T17:05:19.357Z,77.30
2017-09-16T17:07:56.310Z,76.00
2017-09-16T17:10:24.645Z,76.70
2017-09-16T17:12:53.739Z,79.30
2017-09-16T17:15:22.056Z,79.30
2017-09-16T17:17:51.113Z,80.50
2017-09-16T17:20:19.421Z,80.40
2017-09-16T17:22:47.743Z,81.20
2017-09-16T17:25:16.094Z,88.00
2017-09-16T17:27:45.189Z,90.70
2017-09-16T17:30:13.521Z,90.70
2017-09-16T17:32:42.616Z,86.80
2017-09-16T17:35:10.978Z,86.90
2017-09-16T17:37:39.308Z,88.30
2017-09-16T17:40:07.614Z,90.80
2017-09-16T17:42:35.986Z,90.50
2017-09-16T17:45:04.273Z,90.90
2017-09-16T17:47:33.341Z,90.10
2017-09-16T17:50:01.724Z,90.00
2017-09-16T17:52:30.009Z,91.50
2017-09-16T17:54:59.152Z,95.00
2017-09-16T17:57:28.761Z,95.00
2017-09-16T17:59:57.081Z,93.10
2017-09-16T18:02:25.375Z,94.40
2017-09-16T18:04:53.755Z,95.10
2017-09-16T18:07:22.232Z,96.00
2017-09-16T18:09:50.536Z,95.10
2017-09-16T18:12:19.295Z,93.10
2017-09-16T18:14:47.681Z,93.40
2017-09-16T18:17:15.974Z,93.60
2017-09-16T18:19:44.301Z,93.30
2017-09-16T18:22:12.622Z,94.90
2017-09-16T18:24:40.982Z,94.10
2017-09-16T18:27:09.289Z,94.40
2017-09-16T18:29:37.607Z,95.60
2017-09-16T18:32:06.681Z,97.50
2017-09-16T18:34:35.045Z,96.70
2017-09-16T18:37:03.372Z,95.40
2017-09-16T18:39:31.727Z,96.10
2017-09-16T18:42:00.079Z,97.00
2017-09-16T18:44:28.425Z,97.80
2017-09-16T18:46:56.740Z,97.60
2017-09-16T18:49:25.027Z,97.20
2017-09-16T18:51:53.539Z,97.10
2017-09-16T18:54:21.970Z,96.10
2017-09-16T18:56:51.038Z,95.00
2017-09-16T18:59:19.348Z,95.00
2017-09-16T19:01:47.687Z,94.60
2017-09-16T19:04:16.014Z,96.60
2017-09-16T19:06:45.530Z,95.40
2017-09-16T19:09:13.835Z,95.40
2017-09-16T19:11:42.918Z,95.00
2017-09-16T19:14:11.273Z,95.00
2017-09-16T19:16:39.570Z,94.70
2017-09-16T19:19:08.662Z,93.40
2017-09-16T19:21:37.078Z,93.30
2017-09-16T19:24:05.373Z,93.40
2017-09-16T19:26:33.699Z,93.70
2017-09-16T19:29:02.835Z,96.10
2017-09-16T19:31:31.170Z,96.20
2017-09-16T19:33:59.519Z,95.00
2017-09-16T19:36:28.589Z,98.00
2017-09-16T19:38:56.930Z,97.90
2017-09-16T19:41:26.010Z,99.90
2017-09-16T19:43:54.317Z,99.90
2017-09-16T19:46:22.650Z,99.90
2017-09-16T19:48:50.941Z,97.80
2017-09-16T19:51:19.241Z,98.90
2017-09-16T19:53:47.577Z,98.00
2017-09-16T19:58:55.879Z,98.10
2017-09-16T20:01:24.165Z,98.20
2017-09-16T20:03:53.229Z,98.10
2017-09-16T20:06:21.690Z,98.10
2017-09-16T20:08:49.981Z,98.30
2017-09-16T20:11:19.059Z,94.80
2017-09-16T20:13:47.425Z,94.80
2017-09-16T20:16:15.720Z,94.60
2017-09-16T20:18:44.059Z,95.20
2017-09-16T20:21:12.351Z,97.90
2017-09-16T20:23:40.646Z,99.20
2017-09-16T20:26:08.983Z,99.90
2017-09-16T20:28:37.324Z,99.70
2017-09-16T20:31:06.389Z,99.90
2017-09-16T20:33:34.775Z,99.90
2017-09-16T20:36:03.103Z,99.90
2017-09-16T20:38:31.427Z,99.90
2017-09-16T20:40:59.731Z,99.90
2017-09-16T20:43:28.054Z,99.90
2017-09-16T20:45:56.354Z,99.90
2017-09-16T20:48:24.697Z,99.90
2017-09-16T20:50:52.993Z,99.90
2017-09-16T20:53:21.324Z,99.90
2017-09-16T20:55:49.624Z,99.90
2017-09-16T20:58:17.994Z,99.90
2017-09-16T21:00:46.437Z,99.90
2017-09-16T21:03:15.501Z,99.90
2017-09-16T21:05:43.998Z,99.90
2017-09-16T21:08:12.298Z,99.90
2017-09-16T21:10:40.592Z,99.90
2017-09-16T21:13:08.941Z,99.90
2017-09-16T21:15:38.010Z,99.90
2017-09-16T21:18:06.298Z,99.90
2017-09-16T21:20:34.633Z,99.90
2017-09-16T21:23:03.025Z,99.90
2017-09-16T21:25:31.343Z,99.90
2017-09-16T21:27:59.675Z,99.90
2017-09-16T21:30:28.761Z,99.90
2017-09-16T21:32:57.168Z,99.90
2017-09-16T21:35:25.468Z,99.90
2017-09-16T21:37:53.782Z,99.90
2017-09-16T21:40:22.113Z,99.90
2017-09-16T21:42:50.430Z,99.90
2017-09-16T21:45:18.770Z,99.90
2017-09-16T21:47:47.094Z,99.90
2017-09-16T21:50:16.535Z,99.90
2017-09-16T21:52:45.612Z,99.90
2017-09-16T21:55:13.968Z,99.90
2017-09-16T21:57:42.297Z,99.90
2017-09-16T22:00:10.614Z,99.90
2017-09-16T22:02:39.033Z,99.90
2017-09-16T22:05:07.357Z,99.90
2017-09-16T22:07:35.650Z,99.90
2017-09-16T22:10:03.985Z,99.90
2017-09-16T22:12:32.376Z,99.90
2017-09-16T22:15:00.691Z,99.90
2017-09-16T22:17:29.020Z,99.90
2017-09-16T22:19:57.351Z,99.90
2017-09-16T22:22:25.645Z,99.90
2017-09-16T22:24:53.959Z,99.90
2017-09-16T22:27:22.270Z,99.90
2017-09-16T22:29:51.346Z,99.90
2017-09-16T22:32:19.835Z,99.90
2017-09-16T22:34:48.157Z,99.90
2017-09-16T22:37:16.483Z,99.90
2017-09-16T22:39:44.793Z,99.90
2017-09-16T22:42:13.133Z,99.90
2017-09-16T22:44:41.434Z,99.90
2017-09-16T22:47:09.734Z,99.90
2017-09-16T22:49:38.049Z,99.90
2017-09-16T22:52:06.393Z,99.90
2017-09-16T22:54:34.727Z,99.90
2017-09-16T22:57:03.785Z,99.90
2017-09-16T22:59:32.111Z,99.90
2017-09-16T23:02:00.434Z,99.90
2017-09-16T23:04:28.792Z,99.90
2017-09-16T23:06:57.094Z,99.90
2017-09-16T23:09:25.425Z,99.90
2017-09-16T23:11:53.737Z,99.90
2017-09-16T23:14:22.074Z,99.90
2017-09-16T23:16:50.606Z,99.90
2017-09-16T23:19:19.045Z,99.90
2017-09-16T23:21:48.196Z,99.90
2017-09-16T23:24:16.497Z,99.90
2017-09-16T23:26:44.863Z,99.90
2017-09-16T23:29:13.911Z,99.90
2017-09-16T23:31:42.190Z,99.90
2017-09-16T23:34:11.349Z,99.90
2017-09-16T23:36:39.965Z,99.90
2017-09-16T23:39:08.283Z,99.90
2017-09-16T23:41:36.579Z,99.90
2017-09-16T23:44:04.906Z,99.90
2017-09-16T23:46:33.967Z,99.90
2017-09-16T23:49:02.272Z,99.90
2017-09-16T23:51:30.568Z,99.90
2017-09-16T23:53:58.873Z,99.90
2017-09-16T23:56:27.147Z,99.90
2017-09-16T23:58:55.499Z,99.90
